createdAt,value
2017-12-15T00:00:28.641Z,4.65
2017-12-15T00:01:31.096Z,5.40
2017-12-15T00:02:33.566Z,5.87
2017-12-15T00:03:36.078Z,6.28
2017-12-15T00:04:38.590Z,3.80
2017-12-15T00:05:41.857Z,4.15
2017-12-15T00:06:44.316Z,5.05
2017-12-15T00:07:46.772Z,5.68
2017-12-15T00:08:49.223Z,5.60
2017-12-15T00:09:51.702Z,5.60
2017-12-15T00:10:54.177Z,3.00
2017-12-15T00:11:56.729Z,2.92
2017-12-15T00:12:59.201Z,6.25
2017-12-15T00:14:02.550Z,7.35
2017-12-15T00:15:05.852Z,5.70
2017-12-15T00:16:09.125Z,3.67
2017-12-15T00:17:12.184Z,7.00
2017-12-15T00:18:15.411Z,4.82
2017-12-15T00:19:18.672Z,5.55
2017-12-15T00:20:22.694Z,3.25
2017-12-15T00:21:25.223Z,2.62
2017-12-15T00:22:27.813Z,3.65
2017-12-15T00:23:31.149Z,4.05
2017-12-15T00:24:33.658Z,7.45
2017-12-15T00:25:36.911Z,5.22
2017-12-15T00:26:39.378Z,3.10
2017-12-15T00:27:41.841Z,4.95
2017-12-15T00:28:45.206Z,5.45
2017-12-15T00:29:47.725Z,3.05
2017-12-15T00:30:50.189Z,9.20
2017-12-15T00:31:52.680Z,4.78
2017-12-15T00:32:55.172Z,2.40
2017-12-15T00:33:57.659Z,2.37
2017-12-15T00:35:00.202Z,5.37
2017-12-15T00:36:02.666Z,8.05
2017-12-15T00:37:05.878Z,4.80
2017-12-15T00:38:08.322Z,5.85
2017-12-15T00:39:11.581Z,3.80
2017-12-15T00:40:14.525Z,3.75
2017-12-15T00:41:17.011Z,2.75
2017-12-15T00:42:19.482Z,3.87
2017-12-15T00:43:21.990Z,3.37
2017-12-15T00:44:24.454Z,3.70
2017-12-15T00:45:26.902Z,4.45
2017-12-15T00:46:29.373Z,5.10
2017-12-15T00:47:31.834Z,3.40
2017-12-15T00:48:34.302Z,5.60
2017-12-15T00:49:37.535Z,3.22
2017-12-15T00:50:40.773Z,2.45
2017-12-15T00:51:43.265Z,2.55
2017-12-15T00:52:45.728Z,4.03
2017-12-15T00:53:48.985Z,3.60
2017-12-15T00:54:51.445Z,4.65
2017-12-15T00:55:53.897Z,3.05
2017-12-15T00:56:57.902Z,4.45
2017-12-15T00:58:00.369Z,2.70
2017-12-15T00:59:02.844Z,4.37
2017-12-15T01:00:06.798Z,5.82
2017-12-15T01:01:10.021Z,11.07
2017-12-15T01:02:12.592Z,4.07
2017-12-15T01:03:15.258Z,4.75
2017-12-15T01:04:17.772Z,3.25
2017-12-15T01:05:20.215Z,3.45
2017-12-15T01:06:23.245Z,8.20
2017-12-15T01:07:25.698Z,5.15
2017-12-15T01:08:28.978Z,6.20
2017-12-15T01:09:31.450Z,3.42
2017-12-15T01:10:33.917Z,5.30
2017-12-15T01:11:36.589Z,3.28
2017-12-15T01:12:39.802Z,7.15
2017-12-15T01:13:42.291Z,7.82
2017-12-15T01:14:45.522Z,4.05
2017-12-15T01:15:47.981Z,5.53
2017-12-15T01:16:50.445Z,6.20
2017-12-15T01:17:52.910Z,5.60
2017-12-15T01:18:56.174Z,5.10
2017-12-15T01:19:58.686Z,8.95
2017-12-15T01:21:01.900Z,4.00
2017-12-15T01:22:04.361Z,5.80
2017-12-15T01:23:06.850Z,5.43
2017-12-15T01:24:09.942Z,4.72
2017-12-15T01:25:12.414Z,8.00
2017-12-15T01:26:14.975Z,7.47
2017-12-15T01:27:17.434Z,6.82
2017-12-15T01:28:19.885Z,5.70
2017-12-15T01:29:22.358Z,5.50
2017-12-15T01:30:24.866Z,4.20
2017-12-15T01:31:27.313Z,5.45
2017-12-15T01:32:30.078Z,3.87
2017-12-15T01:33:32.542Z,5.07
2017-12-15T01:34:35.775Z,5.07
2017-12-15T01:35:39.034Z,4.37
2017-12-15T01:36:41.490Z,5.85
2017-12-15T01:37:43.933Z,7.43
2017-12-15T01:38:46.405Z,6.28
2017-12-15T01:39:48.886Z,6.55
2017-12-15T01:40:51.357Z,5.25
2017-12-15T01:41:54.626Z,6.05
2017-12-15T01:42:57.163Z,6.87
2017-12-15T01:43:59.713Z,5.62
2017-12-15T01:45:02.177Z,5.65
2017-12-15T01:46:04.664Z,5.95
2017-12-15T01:47:08.777Z,4.78
2017-12-15T01:48:11.339Z,10.68
2017-12-15T01:49:14.940Z,6.85
2017-12-15T01:50:18.230Z,8.18
2017-12-15T01:51:20.705Z,4.45
2017-12-15T01:52:24.076Z,9.40
2017-12-15T01:53:26.566Z,6.75
2017-12-15T01:54:29.825Z,5.12
2017-12-15T01:55:32.335Z,5.22
2017-12-15T01:56:35.566Z,4.45
2017-12-15T01:57:38.078Z,7.03
2017-12-15T01:58:40.540Z,4.40
2017-12-15T01:59:43.010Z,6.70
2017-12-15T02:00:46.941Z,5.43
2017-12-15T02:01:49.422Z,6.05
2017-12-15T02:02:51.894Z,6.22
2017-12-15T02:03:54.400Z,5.18
2017-12-15T02:04:56.829Z,8.57
2017-12-15T02:05:59.297Z,7.40
2017-12-15T02:07:01.766Z,6.78
2017-12-15T02:08:05.029Z,8.38
2017-12-15T02:09:07.538Z,5.50
2017-12-15T02:10:11.241Z,8.77
2017-12-15T02:11:13.726Z,7.75
2017-12-15T02:12:16.190Z,7.10
2017-12-15T02:13:19.589Z,8.88
2017-12-15T02:14:22.801Z,5.22
2017-12-15T02:15:25.562Z,4.22
2017-12-15T02:16:28.049Z,7.15
2017-12-15T02:17:30.506Z,9.43
2017-12-15T02:18:32.958Z,8.63
2017-12-15T02:19:35.427Z,5.70
2017-12-15T02:20:37.952Z,7.30
2017-12-15T02:21:40.477Z,7.20
2017-12-15T02:22:43.056Z,7.03
2017-12-15T02:23:45.489Z,6.90
2017-12-15T02:24:47.984Z,6.80
2017-12-15T02:25:51.217Z,9.93
2017-12-15T02:26:53.670Z,7.15
2017-12-15T02:27:56.159Z,7.93
2017-12-15T02:28:58.614Z,6.15
2017-12-15T02:30:01.089Z,9.35
2017-12-15T02:31:03.542Z,6.68
2017-12-15T02:32:06.798Z,6.28
2017-12-15T02:33:09.303Z,7.10
2017-12-15T02:34:12.565Z,6.87
2017-12-15T02:35:15.270Z,9.73
2017-12-15T02:36:18.499Z,7.55
2017-12-15T02:37:21.063Z,7.57
2017-12-15T02:38:23.531Z,8.27
2017-12-15T02:39:26.048Z,8.45
2017-12-15T02:40:29.278Z,7.15
2017-12-15T02:41:31.742Z,6.62
2017-12-15T02:42:34.216Z,7.28
2017-12-15T02:43:36.700Z,9.05
2017-12-15T02:44:39.964Z,9.45
2017-12-15T02:45:43.242Z,8.55
2017-12-15T02:46:45.735Z,6.82
2017-12-15T02:47:48.202Z,9.95
2017-12-15T02:48:50.671Z,9.38
2017-12-15T02:49:53.948Z,7.97
2017-12-15T02:50:56.434Z,14.05
2017-12-15T02:51:59.717Z,7.55
2017-12-15T02:53:02.180Z,7.03
2017-12-15T02:54:04.621Z,7.47
2017-12-15T02:55:07.085Z,6.85
2017-12-15T02:56:09.605Z,11.32
2017-12-15T02:57:12.092Z,6.68
2017-12-15T02:58:14.562Z,11.52
2017-12-15T02:59:17.024Z,9.82
2017-12-15T03:00:19.497Z,10.27
2017-12-15T03:01:22.510Z,9.63
2017-12-15T03:02:25.749Z,8.27
2017-12-15T03:03:28.209Z,10.27
2017-12-15T03:04:31.320Z,8.98
2017-12-15T03:05:34.686Z,6.93
2017-12-15T03:06:37.161Z,12.63
2017-12-15T03:07:39.654Z,11.55
2017-12-15T03:08:42.494Z,12.37
2017-12-15T03:09:44.960Z,13.75
2017-12-15T03:10:47.429Z,10.15
2017-12-15T03:11:49.919Z,10.88
2017-12-15T03:12:52.456Z,10.32
2017-12-15T03:13:55.699Z,9.43
2017-12-15T03:14:58.949Z,11.90
2017-12-15T03:16:01.438Z,10.15
2017-12-15T03:17:04.003Z,10.30
2017-12-15T03:18:07.230Z,14.98
2017-12-15T03:19:10.445Z,8.65
2017-12-15T03:20:14.428Z,15.55
2017-12-15T03:21:17.684Z,10.57
2017-12-15T03:22:21.142Z,9.63
2017-12-15T03:23:23.663Z,12.75
2017-12-15T03:24:26.919Z,16.25
2017-12-15T03:25:29.381Z,9.85
2017-12-15T03:26:31.893Z,8.88
2017-12-15T03:27:34.395Z,9.00
2017-12-15T03:28:36.905Z,9.55
2017-12-15T03:29:39.382Z,13.65
2017-12-15T03:30:41.838Z,8.35
2017-12-15T03:31:45.099Z,13.02
2017-12-15T03:32:47.602Z,10.32
2017-12-15T03:33:50.103Z,11.25
2017-12-15T03:34:52.584Z,7.72
2017-12-15T03:35:55.050Z,10.07
2017-12-15T03:36:57.532Z,7.90
2017-12-15T03:38:00.010Z,8.73
2017-12-15T03:39:02.466Z,9.25
2017-12-15T03:40:04.940Z,8.15
2017-12-15T03:41:07.400Z,11.80
2017-12-15T03:42:10.665Z,10.68
2017-12-15T03:43:13.946Z,9.50
2017-12-15T03:44:16.465Z,13.75
2017-12-15T03:45:18.961Z,9.20
2017-12-15T03:46:21.528Z,10.15
2017-12-15T03:47:24.234Z,8.88
2017-12-15T03:48:26.769Z,12.75
2017-12-15T03:49:29.534Z,9.38
2017-12-15T03:50:32.105Z,9.80
2017-12-15T03:51:34.625Z,9.10
2017-12-15T03:52:37.074Z,8.50
2017-12-15T03:53:39.930Z,9.10
2017-12-15T03:54:42.486Z,11.27
2017-12-15T03:55:44.947Z,10.60
2017-12-15T03:56:47.434Z,11.38
2017-12-15T03:57:50.897Z,12.85
2017-12-15T03:58:54.355Z,10.50
2017-12-15T03:59:57.597Z,8.13
2017-12-15T04:01:00.064Z,8.43
2017-12-15T04:02:02.531Z,9.48
2017-12-15T04:03:05.759Z,7.90
2017-12-15T04:04:08.238Z,7.22
2017-12-15T04:05:10.748Z,7.95
2017-12-15T04:06:13.574Z,8.93
2017-12-15T04:07:17.074Z,9.90
2017-12-15T04:08:22.119Z,8.68
2017-12-15T04:09:24.605Z,8.10
2017-12-15T04:10:27.210Z,11.93
2017-12-15T04:11:29.692Z,12.07
2017-12-15T04:12:32.232Z,9.52
2017-12-15T04:13:34.697Z,7.72
2017-12-15T04:14:37.241Z,9.30
2017-12-15T04:15:40.485Z,12.15
2017-12-15T04:16:43.701Z,8.45
2017-12-15T04:17:46.165Z,13.20
2017-12-15T04:18:48.633Z,8.82
2017-12-15T04:19:51.127Z,8.82
2017-12-15T04:20:53.589Z,7.12
2017-12-15T04:21:56.822Z,8.48
2017-12-15T04:22:59.285Z,11.07
2017-12-15T04:24:02.511Z,9.40
2017-12-15T04:25:05.017Z,10.98
2017-12-15T04:26:07.487Z,12.02
2017-12-15T04:27:10.732Z,16.37
2017-12-15T04:28:13.961Z,10.77
2017-12-15T04:29:17.195Z,8.65
2017-12-15T04:30:20.170Z,11.02
2017-12-15T04:31:22.617Z,7.10
2017-12-15T04:32:25.068Z,9.80
2017-12-15T04:33:28.353Z,10.68
2017-12-15T04:34:30.797Z,7.43
2017-12-15T04:35:33.264Z,7.20
2017-12-15T04:37:44.749Z,7.55
2017-12-15T04:38:47.231Z,10.77
2017-12-15T04:39:49.678Z,5.65
2017-12-15T04:40:52.889Z,7.25
2017-12-15T04:41:55.349Z,11.32
2017-12-15T04:42:57.891Z,10.45
2017-12-15T04:44:00.349Z,8.25
2017-12-15T04:45:03.562Z,7.10
2017-12-15T04:46:06.022Z,8.32
2017-12-15T04:47:09.263Z,9.77
2017-12-15T04:48:12.509Z,9.93
2017-12-15T04:49:14.973Z,6.85
2017-12-15T04:50:17.442Z,7.72
2017-12-15T04:51:20.718Z,7.68
2017-12-15T04:52:23.171Z,11.07
2017-12-15T04:53:25.629Z,7.78
2017-12-15T04:54:28.850Z,7.07
2017-12-15T04:55:31.330Z,9.25
2017-12-15T04:56:33.797Z,8.25
2017-12-15T04:57:36.261Z,6.82
2017-12-15T04:58:39.589Z,14.38
2017-12-15T04:59:42.180Z,10.38
2017-12-15T05:00:44.618Z,9.30
2017-12-15T05:01:47.070Z,8.63
2017-12-15T05:02:50.311Z,12.55
2017-12-15T05:03:53.574Z,12.15
2017-12-15T05:04:56.112Z,11.05
2017-12-15T05:05:58.588Z,11.55
2017-12-15T05:07:01.129Z,9.27
2017-12-15T05:08:03.601Z,14.73
2017-12-15T05:09:06.105Z,9.93
2017-12-15T05:10:08.560Z,11.00
2017-12-15T05:11:11.053Z,13.50
2017-12-15T05:12:13.522Z,8.02
2017-12-15T05:13:16.081Z,10.75
2017-12-15T05:14:19.321Z,11.48
2017-12-15T05:15:22.549Z,16.58
2017-12-15T05:16:25.784Z,9.45
2017-12-15T05:17:28.246Z,9.57
2017-12-15T05:18:31.498Z,9.85
2017-12-15T05:19:34.018Z,8.43
2017-12-15T05:20:37.240Z,14.13
2017-12-15T05:21:40.485Z,10.15
2017-12-15T05:22:43.731Z,10.05
2017-12-15T05:23:46.268Z,8.70
2017-12-15T05:24:49.519Z,12.88
2017-12-15T05:25:51.979Z,12.88
2017-12-15T05:26:54.450Z,8.88
2017-12-15T05:27:57.685Z,9.50
2017-12-15T05:29:00.938Z,9.88
2017-12-15T05:30:04.178Z,5.65
2017-12-15T05:31:07.437Z,5.85
2017-12-15T05:32:09.922Z,11.38
2017-12-15T05:33:13.912Z,7.87
2017-12-15T05:34:17.156Z,8.23
2017-12-15T05:35:20.441Z,9.65
2017-12-15T05:36:22.906Z,6.57
2017-12-15T05:37:26.129Z,9.02
2017-12-15T05:38:28.623Z,9.80
2017-12-15T05:39:31.159Z,7.20
2017-12-15T05:40:33.693Z,8.15
2017-12-15T05:41:36.213Z,9.80
2017-12-15T05:42:38.769Z,8.38
2017-12-15T05:43:42.032Z,6.87
2017-12-15T05:44:45.311Z,8.90
2017-12-15T05:45:47.778Z,5.22
2017-12-15T05:46:50.346Z,7.53
2017-12-15T05:47:52.813Z,7.05
2017-12-15T05:48:55.263Z,5.32
2017-12-15T05:49:57.779Z,12.50
2017-12-15T05:51:00.262Z,5.43
2017-12-15T05:52:02.765Z,5.78
2017-12-15T05:53:06.044Z,7.12
2017-12-15T05:54:08.511Z,8.40
2017-12-15T05:55:11.738Z,10.40
2017-12-15T05:56:14.202Z,6.60
2017-12-15T05:57:16.685Z,6.05
2017-12-15T05:58:19.170Z,8.30
2017-12-15T05:59:21.774Z,7.25
2017-12-15T06:00:24.223Z,8.68
2017-12-15T06:01:26.746Z,6.35
2017-12-15T06:02:29.247Z,6.45
2017-12-15T06:03:32.558Z,8.77
2017-12-15T06:04:35.200Z,7.12
2017-12-15T06:05:38.942Z,6.78
2017-12-15T06:06:41.405Z,7.37
2017-12-15T06:07:43.902Z,8.75
2017-12-15T06:08:46.414Z,6.25
2017-12-15T06:09:49.714Z,7.65
2017-12-15T06:10:52.903Z,8.40
2017-12-15T06:11:55.389Z,10.15
2017-12-15T06:12:57.877Z,12.23
2017-12-15T06:14:01.111Z,10.75
2017-12-15T06:15:03.650Z,9.50
2017-12-15T06:16:06.909Z,11.55
2017-12-15T06:17:10.145Z,10.75
2017-12-15T06:18:12.632Z,7.72
2017-12-15T06:19:15.093Z,7.82
2017-12-15T06:20:17.580Z,21.05
2017-12-15T06:21:21.557Z,8.30
2017-12-15T06:22:24.790Z,10.88
2017-12-15T06:23:27.334Z,8.68
2017-12-15T06:24:30.555Z,8.45
2017-12-15T06:25:33.014Z,11.32
2017-12-15T06:26:35.479Z,8.80
2017-12-15T06:27:37.936Z,7.40
2017-12-15T06:28:40.482Z,6.18
2017-12-15T06:29:43.729Z,7.53
2017-12-15T06:30:46.178Z,7.53
2017-12-15T06:31:48.782Z,10.98
2017-12-15T06:32:51.280Z,5.90
2017-12-15T06:33:53.733Z,8.30
2017-12-15T06:34:56.200Z,9.18
2017-12-15T06:35:58.726Z,13.15
2017-12-15T06:37:01.206Z,9.93
2017-12-15T06:38:03.691Z,7.82
2017-12-15T06:39:06.175Z,8.68
2017-12-15T06:40:08.629Z,8.05
2017-12-15T06:41:11.086Z,10.82
2017-12-15T06:42:14.305Z,8.60
2017-12-15T06:43:16.774Z,7.93
2017-12-15T06:44:19.242Z,10.48
2017-12-15T06:45:21.699Z,10.30
2017-12-15T06:46:24.161Z,9.43
2017-12-15T06:47:26.613Z,9.63
2017-12-15T06:48:29.077Z,10.68
2017-12-15T06:49:32.426Z,12.00
2017-12-15T06:50:35.657Z,6.80
2017-12-15T06:51:38.894Z,14.80
2017-12-15T06:52:41.457Z,11.63
2017-12-15T06:53:43.925Z,12.85
2017-12-15T06:54:46.478Z,8.50
2017-12-15T06:55:49.865Z,11.48
2017-12-15T06:56:52.315Z,7.30
2017-12-15T06:57:54.810Z,11.27
2017-12-15T06:58:57.325Z,8.10
2017-12-15T06:59:59.789Z,7.95
2017-12-15T07:01:02.254Z,11.10
2017-12-15T07:02:05.495Z,7.18
2017-12-15T07:03:08.719Z,7.78
2017-12-15T07:04:11.972Z,9.45
2017-12-15T07:05:14.618Z,10.75
2017-12-15T07:06:17.852Z,7.95
2017-12-15T07:07:21.105Z,9.10
2017-12-15T07:08:23.799Z,9.30
2017-12-15T07:09:26.272Z,7.10
2017-12-15T07:10:28.735Z,11.68
2017-12-15T07:11:31.968Z,14.32
2017-12-15T07:12:34.537Z,9.23
2017-12-15T07:13:37.781Z,9.15
2017-12-15T07:14:41.022Z,11.88
2017-12-15T07:15:44.302Z,9.95
2017-12-15T07:16:46.791Z,8.88
2017-12-15T07:17:50.031Z,14.95
2017-12-15T07:18:53.276Z,10.10
2017-12-15T07:19:55.744Z,11.93
2017-12-15T07:20:58.239Z,12.48
2017-12-15T07:22:01.451Z,8.10
2017-12-15T07:23:03.906Z,13.18
2017-12-15T07:24:06.587Z,9.13
2017-12-15T07:25:09.041Z,7.70
2017-12-15T07:26:12.275Z,10.63
2017-12-15T07:27:14.866Z,6.18
2017-12-15T07:28:17.336Z,12.95
2017-12-15T07:29:20.616Z,9.27
2017-12-15T07:30:23.852Z,10.85
2017-12-15T07:31:26.315Z,6.70
2017-12-15T07:32:28.762Z,7.20
2017-12-15T07:33:32.003Z,7.20
2017-12-15T07:34:35.261Z,10.15
2017-12-15T07:35:38.562Z,7.60
2017-12-15T07:36:41.025Z,12.75
2017-12-15T07:37:44.240Z,8.45
2017-12-15T07:38:46.818Z,7.50
2017-12-15T07:39:49.275Z,6.53
2017-12-15T07:40:51.769Z,13.20
2017-12-15T07:41:54.258Z,10.23
2017-12-15T07:42:56.746Z,10.95
2017-12-15T07:43:59.226Z,9.95
2017-12-15T07:45:02.451Z,10.40
2017-12-15T07:46:05.108Z,8.90
2017-12-15T07:47:07.558Z,6.35
2017-12-15T07:48:10.433Z,13.05
2017-12-15T07:49:12.977Z,15.65
2017-12-15T07:50:16.205Z,10.63
2017-12-15T07:51:18.689Z,9.95
2017-12-15T07:52:21.828Z,7.35
2017-12-15T07:53:24.270Z,9.23
2017-12-15T07:54:26.753Z,9.05
2017-12-15T07:55:29.197Z,9.80
2017-12-15T07:56:31.653Z,7.80
2017-12-15T07:57:34.117Z,10.52
2017-12-15T07:58:36.581Z,7.70
2017-12-15T07:59:39.217Z,9.20
2017-12-15T08:00:41.667Z,7.75
2017-12-15T08:01:44.905Z,13.75
2017-12-15T08:02:48.881Z,10.48
2017-12-15T08:03:52.107Z,10.48
2017-12-15T08:04:54.662Z,11.57
2017-12-15T08:05:57.918Z,9.02
2017-12-15T08:07:00.394Z,7.93
2017-12-15T08:08:02.914Z,10.05
2017-12-15T08:09:05.358Z,11.70
2017-12-15T08:10:07.901Z,8.98
2017-12-15T08:11:11.137Z,11.23
2017-12-15T08:12:14.341Z,12.05
2017-12-15T08:13:16.818Z,10.60
2017-12-15T08:14:19.289Z,11.05
2017-12-15T08:15:21.792Z,7.70
2017-12-15T08:16:24.242Z,10.63
2017-12-15T08:17:26.699Z,12.95
2017-12-15T08:18:29.143Z,9.60
2017-12-15T08:19:31.614Z,13.82
2017-12-15T08:20:34.093Z,11.80
2017-12-15T08:21:36.624Z,11.00
2017-12-15T08:22:39.125Z,10.38
2017-12-15T08:23:42.335Z,8.95
2017-12-15T08:24:44.813Z,11.68
2017-12-15T08:25:48.031Z,12.77
2017-12-15T08:26:50.508Z,10.27
2017-12-15T08:27:52.973Z,10.00
2017-12-15T08:28:55.452Z,10.05
2017-12-15T08:29:57.921Z,10.23
2017-12-15T08:31:01.248Z,14.55
2017-12-15T08:32:03.729Z,8.50
2017-12-15T08:33:06.291Z,9.90
2017-12-15T08:34:08.782Z,8.90
2017-12-15T08:35:11.256Z,9.07
2017-12-15T08:36:13.696Z,11.52
2017-12-15T08:37:17.929Z,14.27
2017-12-15T08:38:20.378Z,10.50
2017-12-15T08:39:22.882Z,9.38
2017-12-15T08:40:25.341Z,8.00
2017-12-15T08:41:28.589Z,10.32
2017-12-15T08:42:31.809Z,7.25
2017-12-15T08:43:34.259Z,7.05
2017-12-15T08:44:37.613Z,8.13
2017-12-15T08:45:40.146Z,9.40
2017-12-15T08:46:42.592Z,11.88
2017-12-15T08:47:45.094Z,11.98
2017-12-15T08:48:47.577Z,9.50
2017-12-15T08:49:50.164Z,8.98
2017-12-15T08:50:52.609Z,9.77
2017-12-15T08:51:55.811Z,8.93
2017-12-15T08:52:58.273Z,6.93
2017-12-15T08:54:00.734Z,8.25
2017-12-15T08:55:03.978Z,10.02
2017-12-15T08:56:07.201Z,8.93
2017-12-15T08:57:10.045Z,13.07
2017-12-15T08:58:13.310Z,8.25
2017-12-15T08:59:15.772Z,10.50
2017-12-15T09:00:19.002Z,10.07
2017-12-15T09:01:21.520Z,11.10
2017-12-15T09:02:23.976Z,9.38
2017-12-15T09:03:26.470Z,16.12
2017-12-15T09:04:28.931Z,9.80
2017-12-15T09:05:31.423Z,6.15
2017-12-15T09:06:33.925Z,8.15
2017-12-15T09:07:37.155Z,8.27
2017-12-15T09:08:40.438Z,8.20
2017-12-15T09:09:42.931Z,9.80
2017-12-15T09:10:45.401Z,10.50
2017-12-15T09:11:47.895Z,8.85
2017-12-15T09:12:51.114Z,8.02
2017-12-15T09:13:54.374Z,11.60
2017-12-15T09:14:56.859Z,8.40
2017-12-15T09:15:59.329Z,8.50
2017-12-15T09:17:01.809Z,8.30
2017-12-15T09:18:05.052Z,9.93
2017-12-15T09:19:07.516Z,13.48
2017-12-15T09:20:09.984Z,11.07
2017-12-15T09:21:12.489Z,10.35
2017-12-15T09:22:15.005Z,8.68
2017-12-15T09:23:17.508Z,13.62
2017-12-15T09:24:21.577Z,10.55
2017-12-15T09:25:24.076Z,9.80
2017-12-15T09:26:26.531Z,13.20
2017-12-15T09:27:28.998Z,11.73
2017-12-15T09:28:31.457Z,11.73
2017-12-15T09:29:34.745Z,12.43
2017-12-15T09:30:37.237Z,10.23
2017-12-15T09:31:39.716Z,10.63
2017-12-15T09:32:42.307Z,11.77
2017-12-15T09:33:44.777Z,13.45
2017-12-15T09:34:47.805Z,11.35
2017-12-15T09:35:50.268Z,10.93
2017-12-15T09:36:52.782Z,23.17
2017-12-15T09:37:55.278Z,13.05
2017-12-15T09:38:57.830Z,13.68
2017-12-15T09:40:00.343Z,14.63
2017-12-15T09:41:02.825Z,10.75
2017-12-15T09:42:05.342Z,15.57
2017-12-15T09:43:07.826Z,11.57
2017-12-15T09:44:10.285Z,13.73
2017-12-15T09:45:12.736Z,12.25
2017-12-15T09:46:15.241Z,13.10
2017-12-15T09:47:18.555Z,16.55
2017-12-15T09:48:21.819Z,13.98
2017-12-15T09:49:25.045Z,12.52
2017-12-15T09:50:28.393Z,11.50
2017-12-15T09:51:31.628Z,12.18
2017-12-15T09:52:34.095Z,12.20
2017-12-15T09:53:36.587Z,14.18
2017-12-15T09:54:39.870Z,16.58
2017-12-15T09:55:42.707Z,12.80
2017-12-15T09:56:45.167Z,13.68
2017-12-15T09:57:47.676Z,17.90
2017-12-15T09:58:50.232Z,12.68
2017-12-15T09:59:52.704Z,14.27
2017-12-15T10:00:55.178Z,13.18
2017-12-15T10:01:57.645Z,15.52
2017-12-15T10:03:00.106Z,14.27
2017-12-15T10:04:03.370Z,12.50
2017-12-15T10:05:06.607Z,13.00
2017-12-15T10:06:09.197Z,15.93
2017-12-15T10:07:11.696Z,21.08
2017-12-15T10:08:14.166Z,12.00
2017-12-15T10:09:16.634Z,14.35
2017-12-15T10:10:19.863Z,20.90
2017-12-15T10:11:23.094Z,13.27
2017-12-15T10:12:25.589Z,14.38
2017-12-15T10:13:28.051Z,14.32
2017-12-15T10:14:31.269Z,21.90
2017-12-15T10:15:33.736Z,14.87
2017-12-15T10:16:36.404Z,15.07
2017-12-15T10:17:38.904Z,12.73
2017-12-15T10:18:41.434Z,11.52
2017-12-15T10:19:46.013Z,13.00
2017-12-15T10:20:48.506Z,13.02
2017-12-15T10:21:51.763Z,13.25
2017-12-15T10:22:54.280Z,10.85
2017-12-15T10:23:58.631Z,12.23
2017-12-15T10:25:01.094Z,11.90
2017-12-15T10:26:03.558Z,14.98
2017-12-15T10:27:06.038Z,15.93
2017-12-15T10:28:08.537Z,14.30
2017-12-15T10:29:11.817Z,10.75
2017-12-15T10:30:14.298Z,13.18
2017-12-15T10:31:17.525Z,10.90
2017-12-15T10:32:20.003Z,11.88
2017-12-15T10:33:22.482Z,16.58
2017-12-15T10:34:24.954Z,12.48
2017-12-15T10:35:27.416Z,13.23
2017-12-15T10:36:31.407Z,13.02
2017-12-15T10:37:33.907Z,11.43
2017-12-15T10:38:36.392Z,12.05
2017-12-15T10:39:38.853Z,13.07
2017-12-15T10:40:41.318Z,16.20
2017-12-15T10:41:43.806Z,15.05
2017-12-15T10:42:46.281Z,19.80
2017-12-15T10:43:48.760Z,15.52
2017-12-15T10:44:51.245Z,15.25
2017-12-15T10:45:53.712Z,18.60
2017-12-15T10:46:56.207Z,11.63
2017-12-15T10:47:58.668Z,15.85
2017-12-15T10:49:01.221Z,19.27
2017-12-15T10:50:03.753Z,19.50
2017-12-15T10:51:06.220Z,16.05
2017-12-15T10:52:08.703Z,14.45
2017-12-15T10:53:11.170Z,19.95
2017-12-15T10:54:13.633Z,15.98
2017-12-15T10:55:16.865Z,18.42
2017-12-15T10:56:20.121Z,23.25
2017-12-15T10:57:23.467Z,19.12
2017-12-15T10:58:26.690Z,16.52
2017-12-15T10:59:29.960Z,15.70
2017-12-15T11:00:32.437Z,20.40
2017-12-15T11:01:34.926Z,18.90
2017-12-15T11:02:37.426Z,20.23
2017-12-15T11:03:40.635Z,17.02
2017-12-15T11:04:43.131Z,16.92
2017-12-15T11:05:45.682Z,17.87
2017-12-15T11:06:48.130Z,25.90
2017-12-15T11:07:51.370Z,17.95
2017-12-15T11:08:54.638Z,18.05
2017-12-15T11:09:57.110Z,22.45
2017-12-15T11:10:59.707Z,18.35
2017-12-15T11:12:02.173Z,21.08
2017-12-15T11:13:04.746Z,22.33
2017-12-15T11:14:07.215Z,19.92
2017-12-15T11:15:09.668Z,19.30
2017-12-15T11:16:12.963Z,17.75
2017-12-15T11:17:15.469Z,24.98
2017-12-15T11:18:17.949Z,22.02
2017-12-15T11:19:20.434Z,20.60
2017-12-15T11:20:22.898Z,19.40
2017-12-15T11:21:27.101Z,18.25
2017-12-15T11:22:29.578Z,17.92
2017-12-15T11:23:32.054Z,21.15
2017-12-15T11:24:34.527Z,19.95
2017-12-15T11:25:36.993Z,17.85
2017-12-15T11:26:39.446Z,21.77
2017-12-15T11:27:41.969Z,21.52
2017-12-15T11:28:44.585Z,21.30
2017-12-15T11:29:47.232Z,19.65
2017-12-15T11:30:49.693Z,20.23
2017-12-15T11:31:52.158Z,19.90
2017-12-15T11:32:54.724Z,23.20
2017-12-15T11:33:57.217Z,22.30
2017-12-15T11:34:59.732Z,19.40
2017-12-15T11:36:02.206Z,31.87
2017-12-15T11:37:04.793Z,18.17
2017-12-15T11:38:07.268Z,21.58
2017-12-15T11:39:09.717Z,19.95
2017-12-15T11:40:12.986Z,20.12
2017-12-15T11:41:15.497Z,20.27
2017-12-15T11:42:18.749Z,21.35
2017-12-15T11:43:21.214Z,22.35
2017-12-15T11:44:23.678Z,19.15
2017-12-15T11:45:26.907Z,21.05
2017-12-15T11:46:29.353Z,23.48
2017-12-15T11:47:31.866Z,20.02
2017-12-15T11:48:35.090Z,20.98
2017-12-15T11:49:37.583Z,19.08
2017-12-15T11:50:40.035Z,20.40
2017-12-15T11:51:42.544Z,19.73
2017-12-15T11:52:45.009Z,20.42
2017-12-15T11:53:48.235Z,21.00
2017-12-15T11:54:51.517Z,21.67
2017-12-15T11:55:54.002Z,20.45
2017-12-15T11:56:57.329Z,20.88
2017-12-15T11:57:59.812Z,21.73
2017-12-15T11:59:02.274Z,23.15
2017-12-15T12:00:04.737Z,23.67
2017-12-15T12:01:07.971Z,22.02
2017-12-15T12:02:11.233Z,22.15
2017-12-15T12:03:13.685Z,19.67
2017-12-15T12:04:16.155Z,20.98
2017-12-15T12:05:18.687Z,22.70
2017-12-15T12:06:21.237Z,20.17
2017-12-15T12:07:23.731Z,29.02
2017-12-15T12:08:26.196Z,24.10
2017-12-15T12:09:29.555Z,23.58
2017-12-15T12:10:32.051Z,21.40
2017-12-15T12:11:34.543Z,20.30
2017-12-15T12:12:37.812Z,20.90
2017-12-15T12:13:41.098Z,18.52
2017-12-15T12:14:43.985Z,23.87
2017-12-15T12:15:47.254Z,20.27
2017-12-15T12:16:49.728Z,21.02
2017-12-15T12:17:52.207Z,23.00
2017-12-15T12:18:54.654Z,21.00
2017-12-15T12:19:57.246Z,18.92
2017-12-15T12:20:59.731Z,20.70
2017-12-15T12:22:03.709Z,21.55
2017-12-15T12:23:06.941Z,21.85
2017-12-15T12:24:09.662Z,20.05
2017-12-15T12:25:12.165Z,20.75
2017-12-15T12:26:14.674Z,18.20
2017-12-15T12:27:17.150Z,20.90
2017-12-15T12:28:19.624Z,19.17
2017-12-15T12:29:22.138Z,19.55
2017-12-15T12:30:24.653Z,16.12
2017-12-15T12:31:27.101Z,18.67
2017-12-15T12:32:29.562Z,16.12
2017-12-15T12:33:32.046Z,13.07
2017-12-15T12:34:34.840Z,17.85
2017-12-15T12:35:38.077Z,16.95
2017-12-15T12:36:41.339Z,16.55
2017-12-15T12:37:44.560Z,20.10
2017-12-15T12:38:47.009Z,16.20
2017-12-15T12:39:49.466Z,16.83
2017-12-15T12:40:51.963Z,16.65
2017-12-15T12:41:54.476Z,15.18
2017-12-15T12:42:57.740Z,15.00
2017-12-15T12:44:00.195Z,14.70
2017-12-15T12:45:02.657Z,19.10
2017-12-15T12:46:05.894Z,15.05
2017-12-15T12:47:08.391Z,16.37
2017-12-15T12:48:11.518Z,14.07
2017-12-15T12:49:14.106Z,15.98
2017-12-15T12:50:22.148Z,12.50
2017-12-15T12:51:26.418Z,12.02
2017-12-15T12:52:28.953Z,12.75
2017-12-15T12:53:32.199Z,12.73
2017-12-15T12:54:34.674Z,15.48
2017-12-15T12:55:37.139Z,12.57
2017-12-15T12:56:40.605Z,12.45
2017-12-15T12:57:43.103Z,13.23
2017-12-15T12:58:46.369Z,13.30
2017-12-15T12:59:48.851Z,15.82
2017-12-15T13:00:51.302Z,12.88
2017-12-15T13:01:54.528Z,14.70
2017-12-15T13:02:57.812Z,11.90
2017-12-15T13:04:00.282Z,13.85
2017-12-15T13:05:02.728Z,13.32
2017-12-15T13:06:05.972Z,12.95
2017-12-15T13:07:09.202Z,13.05
2017-12-15T13:08:11.704Z,14.07
2017-12-15T13:09:14.171Z,16.95
2017-12-15T13:10:17.580Z,11.43
2017-12-15T13:11:20.038Z,12.23
2017-12-15T13:12:23.265Z,14.60
2017-12-15T13:13:26.517Z,12.45
2017-12-15T13:14:29.775Z,15.55
2017-12-15T13:15:33.019Z,13.32
2017-12-15T13:16:36.330Z,17.20
2017-12-15T13:17:38.789Z,13.65
2017-12-15T13:18:41.263Z,12.43
2017-12-15T13:19:44.111Z,17.65
2017-12-15T13:20:46.721Z,14.20
2017-12-15T13:21:49.190Z,15.15
2017-12-15T13:22:52.462Z,14.10
2017-12-15T13:23:54.970Z,16.48
2017-12-15T13:24:57.442Z,15.05
2017-12-15T13:25:59.937Z,16.55
2017-12-15T13:27:02.402Z,14.23
2017-12-15T13:28:05.712Z,17.17
2017-12-15T13:29:08.215Z,15.77
2017-12-15T13:30:10.706Z,21.67
2017-12-15T13:31:13.164Z,17.08
2017-12-15T13:32:15.676Z,17.15
2017-12-15T13:33:18.905Z,16.52
2017-12-15T13:34:22.172Z,15.85
2017-12-15T13:35:25.403Z,17.33
2017-12-15T13:36:28.633Z,16.12
2017-12-15T13:37:31.901Z,16.00
2017-12-15T13:39:44.132Z,16.25
2017-12-15T13:40:47.329Z,18.50
2017-12-15T13:41:49.814Z,16.00
2017-12-15T13:42:52.302Z,16.02
2017-12-15T13:43:54.774Z,18.20